Time;durP1;ratioP1;P1;durP2;ratioP2;P2;SDS_P1;SDS_P2;PMS_P1;PMS_P2;Temp;Humidity;BMP_temperature;BMP_pressure;BME280_temperature;BME280_humidity;BME280_pressure;Samples;Min_cycle;Max_cycle;Signal;HPM_P1;HPM_P2
2022/11/12 00:03:43;;;;;;;35.97;23.23;;;;;;;2.69;100.00;102848.00;10537736;28;20453;-68
2022/11/12 00:08:46;;;;;;;43.10;25.65;;;;;;;2.53;100.00;102851.91;10537977;28;20058;-69
2022/11/12 00:13:49;;;;;;;39.13;24.63;;;;;;;2.63;100.00;102855.56;10543393;28;20061;-69
2022/11/12 00:18:51;;;;;;;46.95;27.00;;;;;;;2.61;100.00;102856.38;10545469;28;20063;-69
2022/11/12 00:23:52;;;;;;;46.57;26.10;;;;;;;2.61;100.00;102853.81;10545749;28;20143;-68
2022/11/12 00:28:56;;;;;;;46.60;26.23;;;;;;;2.62;100.00;102852.97;10544779;28;20088;-68
2022/11/12 00:33:57;;;;;;;41.17;25.67;;;;;;;2.63;100.00;102862.47;10545256;28;20428;-68
2022/11/12 00:38:59;;;;;;;44.23;27.57;;;;;;;2.53;100.00;102875.09;10545586;28;20063;-69
2022/11/12 00:44:02;;;;;;;47.23;28.03;;;;;;;2.47;100.00;102863.78;10542851;28;20140;-69
2022/11/12 00:49:05;;;;;;;50.42;28.00;;;;;;;2.63;100.00;102858.16;10545232;28;20103;-69
2022/11/12 00:54:09;;;;;;;36.33;25.52;;;;;;;2.48;100.00;102861.25;10544936;28;20117;-69
2022/11/12 00:59:13;;;;;;;42.30;26.85;;;;;;;2.42;100.00;102853.34;10544565;28;20064;-68
2022/11/12 01:04:15;;;;;;;44.00;27.42;;;;;;;2.42;100.00;102856.81;10544584;28;20116;-69
2022/11/12 01:09:16;;;;;;;47.15;26.58;;;;;;;2.52;100.00;102845.03;10543984;28;20530;-69
2022/11/12 01:14:19;;;;;;;44.60;27.52;;;;;;;2.31;100.00;102845.38;10541549;28;20057;-70
2022/11/12 01:19:22;;;;;;;42.78;26.45;;;;;;;2.25;100.00;102837.47;10543526;28;20527;-69
2022/11/12 01:24:24;;;;;;;43.20;25.92;;;;;;;2.28;100.00;102838.44;10542917;28;20426;-69
2022/11/12 01:29:27;;;;;;;40.03;25.30;;;;;;;2.42;100.00;102835.31;10542951;28;20098;-69
2022/11/12 01:34:29;;;;;;;44.55;26.30;;;;;;;2.34;100.00;102836.84;10543239;28;20549;-70
2022/11/12 01:39:32;;;;;;;42.70;25.83;;;;;;;2.25;100.00;102835.78;10543331;28;20058;-70
2022/11/12 01:44:41;;;;;;;43.00;25.48;;;;;;;2.10;100.00;102832.81;10540379;28;20367;-70
2022/11/12 01:49:51;;;;;;;42.13;25.77;;;;;;;2.00;100.00;102824.88;10542473;28;20122;-69
2022/11/12 01:54:59;;;;;;;40.88;24.63;;;;;;;2.18;100.00;102827.03;10542121;28;20510;-69
2022/11/12 02:00:09;;;;;;;37.38;24.23;;;;;;;2.03;100.00;102830.13;10542418;28;20110;-69
2022/11/12 02:05:13;;;;;;;42.88;23.35;;;;;;;1.93;100.00;102828.13;10542257;28;20085;-68
2022/11/12 02:10:14;;;;;;;42.47;24.85;;;;;;;1.99;100.00;102825.69;10541351;28;20078;-69
2022/11/12 02:15:18;;;;;;;41.72;24.60;;;;;;;1.86;100.00;102826.22;10539016;28;20060;-69
2022/11/12 02:20:20;;;;;;;37.40;23.25;;;;;;;1.83;100.00;102823.56;10541233;28;20470;-68
2022/11/12 02:25:29;;;;;;;39.28;23.65;;;;;;;1.99;100.00;102836.00;10541040;28;20131;-69
2022/11/12 02:30:33;;;;;;;41.05;22.60;;;;;;;1.81;100.00;102831.25;10540228;28;20411;-68
2022/11/12 02:35:35;;;;;;;35.17;22.77;;;;;;;1.76;100.00;102841.44;10539946;28;20493;-69
2022/11/12 02:40:38;;;;;;;34.70;21.95;;;;;;;1.88;100.00;102822.00;10540067;28;20062;-69
2022/11/12 02:45:40;;;;;;;31.48;20.88;;;;;;;1.74;100.00;102827.63;10538454;28;20058;-69
2022/11/12 02:50:42;;;;;;;37.73;23.40;;;;;;;1.73;100.00;102822.44;10539944;28;20133;-69
2022/11/12 02:55:45;;;;;;;35.30;21.93;;;;;;;1.70;100.00;102812.94;10540161;28;20067;-69
2022/11/12 03:00:47;;;;;;;39.63;21.50;;;;;;;1.70;100.00;102797.50;10539860;28;20476;-68
2022/11/12 03:05:56;;;;;;;34.08;20.10;;;;;;;1.72;100.00;102816.44;10539670;28;20101;-69
2022/11/12 03:10:59;;;;;;;40.25;21.30;;;;;;;1.63;100.00;102805.88;10539180;28;20139;-69
2022/11/12 03:16:01;;;;;;;36.78;20.13;;;;;;;1.64;100.00;102805.06;10537000;28;20061;-69
2022/11/12 03:21:04;;;;;;;35.73;21.20;;;;;;;1.56;100.00;102819.41;10539026;28;20064;-68
2022/11/12 03:26:07;;;;;;;29.83;19.50;;;;;;;1.67;100.00;102826.59;10538887;28;20364;-69
2022/11/12 03:31:10;;;;;;;30.20;19.08;;;;;;;1.65;100.00;102829.97;10538560;28;20088;-68
2022/11/12 03:36:13;;;;;;;29.85;17.95;;;;;;;1.64;100.00;102826.53;10538928;28;20492;-69
2022/11/12 03:41:16;;;;;;;26.23;17.38;;;;;;;1.54;100.00;102830.53;10537883;28;20068;-69
2022/11/12 03:46:18;;;;;;;31.88;17.88;;;;;;;1.67;100.00;102833.44;10534965;28;20414;-69
2022/11/12 03:51:20;;;;;;;27.80;17.03;;;;;;;1.70;100.00;102825.81;10538600;28;20507;-68
2022/11/12 03:56:23;;;;;;;30.15;16.58;;;;;;;1.65;100.00;102824.81;10538392;28;20091;-69
2022/11/12 04:01:24;;;;;;;25.23;16.73;;;;;;;1.64;100.00;102829.09;10537627;28;20126;-69
2022/11/12 04:11:48;;;;;;;29.10;15.63;;;;;;;1.46;100.00;102813.13;10537506;28;20072;-69
2022/11/12 04:22:12;;;;;;;25.90;16.35;;;;;;;1.60;100.00;102805.78;10510690;28;20074;-69
2022/11/12 04:27:18;;;;;;;24.65;14.93;;;;;;;1.63;100.00;102800.72;10537033;28;20058;-69
2022/11/12 04:32:21;;;;;;;28.83;15.05;;;;;;;1.48;100.00;102791.78;10537162;28;20084;-68
2022/11/12 04:37:25;;;;;;;26.13;15.23;;;;;;;1.48;100.00;102791.78;10537070;28;20074;-69
2022/11/12 04:47:52;;;;;;;28.33;14.77;;;;;;;1.54;100.00;102797.09;10495164;28;20078;-69
2022/11/12 04:52:54;;;;;;;25.00;15.47;;;;;;;1.40;100.00;102795.84;10537532;28;20133;-68
2022/11/12 04:57:57;;;;;;;28.37;16.23;;;;;;;1.40;100.00;102793.25;10543036;28;20062;-69
2022/11/12 05:02:59;;;;;;;29.98;14.70;;;;;;;1.25;100.00;102789.44;10544875;28;20121;-70
2022/11/12 05:08:01;;;;;;;26.40;14.13;;;;;;;1.39;100.00;102781.22;10543689;28;20061;-69
2022/11/12 05:13:04;;;;;;;23.13;14.00;;;;;;;1.38;100.00;102776.91;10543774;28;20551;-69
2022/11/12 05:18:06;;;;;;;24.05;13.75;;;;;;;1.30;100.00;102775.84;10540238;28;20063;-69
2022/11/12 05:23:09;;;;;;;24.67;14.40;;;;;;;1.14;100.00;102778.00;10542006;28;20058;-69
2022/11/12 05:28:12;;;;;;;24.35;14.10;;;;;;;1.18;100.00;102769.53;10541726;28;20095;-69
2022/11/12 05:33:14;;;;;;;26.80;12.85;;;;;;;1.23;100.00;102765.38;10540303;28;20470;-69
2022/11/12 05:38:15;;;;;;;24.40;14.20;;;;;;;1.17;100.00;102765.22;10539530;28;20520;-69
2022/11/12 05:43:18;;;;;;;23.83;13.27;;;;;;;1.12;100.00;102761.63;10539867;28;20061;-69
2022/11/12 05:48:20;;;;;;;22.20;12.80;;;;;;;1.18;100.00;102766.94;10536799;28;20121;-70
2022/11/12 05:53:23;;;;;;;23.40;13.65;;;;;;;1.13;100.00;102769.38;10540812;28;20139;-69
2022/11/12 05:58:26;;;;;;;24.98;13.65;;;;;;;1.07;100.00;102761.53;10541363;28;20065;-69
2022/11/12 06:03:29;;;;;;;24.10;12.93;;;;;;;1.05;100.00;102759.69;10540723;28;20063;-69
2022/11/12 06:08:31;;;;;;;22.63;12.98;;;;;;;1.06;100.00;102761.47;10540274;28;20070;-69
2022/11/12 06:13:34;;;;;;;19.13;13.40;;;;;;;1.08;100.00;102767.50;10541704;28;20132;-69
2022/11/12 06:18:36;;;;;;;23.50;13.82;;;;;;;1.13;100.00;102763.41;10539571;28;20103;-69
2022/11/12 06:23:39;;;;;;;20.73;12.10;;;;;;;1.02;100.00;102771.66;10541208;28;20055;-69
2022/11/12 06:28:42;;;;;;;23.25;13.82;;;;;;;0.95;100.00;102785.16;10540853;28;20570;-69
2022/11/12 06:33:44;;;;;;;25.02;12.35;;;;;;;0.96;100.00;102780.91;10540408;28;20469;-70
2022/11/12 06:38:46;;;;;;;;;;;;;;;0.96;100.00;102786.91;10541095;28;20146;-70
2022/11/12 06:43:49;;;;;;;19.02;11.88;;;;;;;0.85;100.00;102780.56;10538484;28;20351;-70
2022/11/12 06:48:50;;;;;;;25.17;12.45;;;;;;;1.02;100.00;102773.34;10540176;28;20061;-70
2022/11/12 06:53:54;;;;;;;23.13;13.33;;;;;;;0.97;100.00;102793.81;10540478;28;20082;-70
2022/11/12 06:58:57;;;;;;;21.33;12.35;;;;;;;1.16;100.00;102786.59;10540318;28;20556;-70
2022/11/12 07:03:59;;;;;;;23.35;13.63;;;;;;;1.15;100.00;102788.31;10539504;28;20053;-70
2022/11/12 07:09:00;;;;;;;20.70;12.93;;;;;;;1.10;100.00;102799.31;10539323;28;20060;-69
2022/11/12 07:14:05;;;;;;;21.30;13.73;;;;;;;1.07;100.00;102794.06;10536930;28;20084;-69
2022/11/12 07:19:07;;;;;;;21.80;13.43;;;;;;;1.20;100.00;102785.84;10536873;28;20064;-69
2022/11/12 07:24:09;;;;;;;21.20;12.33;;;;;;;1.30;100.00;102791.28;10537585;28;20104;-71
2022/11/12 07:29:12;;;;;;;23.85;12.82;;;;;;;1.32;100.00;102789.59;10537299;28;20219;-70
2022/11/12 07:34:14;;;;;;;24.98;12.52;;;;;;;1.44;100.00;102791.66;10536535;28;20081;-70
2022/11/12 07:39:16;;;;;;;26.53;13.83;;;;;;;1.59;100.00;102802.38;10537147;28;20065;-71
2022/11/12 07:44:19;;;;;;;23.03;13.17;;;;;;;1.70;100.00;102801.75;10534571;28;20057;-70
2022/11/12 07:49:20;;;;;;;23.15;13.05;;;;;;;1.75;100.00;102806.19;10536566;28;20065;-71
2022/11/12 07:54:22;;;;;;;25.77;13.37;;;;;;;1.94;100.00;102796.38;10536175;28;20537;-70
2022/11/12 07:59:25;;;;;;;28.13;14.60;;;;;;;2.15;100.00;102801.19;10536041;28;20088;-69
2022/11/12 08:04:26;;;;;;;27.17;14.30;;;;;;;2.42;100.00;102814.69;10536401;28;20131;-69
2022/11/12 08:09:28;;;;;;;30.30;14.97;;;;;;;2.78;100.00;102813.81;10536244;28;20518;-70
2022/11/12 08:14:31;;;;;;;27.00;14.57;;;;;;;3.03;100.00;102816.91;10533462;28;20123;-70
2022/11/12 08:19:33;;;;;;;24.17;15.07;;;;;;;3.50;100.00;102815.25;10535692;28;20107;-70
2022/11/12 08:24:34;;;;;;;32.27;18.07;;;;;;;5.07;100.00;102829.78;10535745;28;20052;-70
2022/11/12 08:29:37;;;;;;;29.83;17.07;;;;;;;6.22;100.00;102821.47;10536976;28;20401;-69
2022/11/12 08:34:40;;;;;;;28.45;15.48;;;;;;;6.41;100.00;102825.94;10543606;28;20773;-69
2022/11/12 08:39:41;;;;;;;;;;;;;;;6.47;100.00;102829.41;10543989;28;20415;-69
2022/11/12 08:44:46;;;;;;;32.00;17.13;;;;;;;8.42;100.00;102830.78;10541526;28;19924;-69
2022/11/12 08:49:47;;;;;;;28.85;16.80;;;;;;;7.91;100.00;102829.09;10544157;28;20098;-69
2022/11/12 08:54:49;;;;;;;29.45;16.98;;;;;;;7.45;100.00;102838.53;10543178;28;20040;-69
2022/11/12 08:59:52;;;;;;;33.25;18.67;;;;;;;8.58;100.00;102834.28;10542671;28;20086;-69
2022/11/12 09:04:53;;;;;;;33.10;20.55;;;;;;;10.56;100.00;102817.44;10543223;28;20131;-68
2022/11/12 09:09:57;;;;;;;33.40;20.25;;;;;;;10.85;100.00;102825.84;10542675;28;20101;-68
2022/11/12 09:15:00;;;;;;;25.90;18.83;;;;;;;12.03;91.22;102823.28;10540241;28;20045;-66
2022/11/12 09:20:01;;;;;;;20.05;15.48;;;;;;;11.05;97.55;102833.41;10542201;28;20090;-67
2022/11/12 09:25:04;;;;;;;17.05;11.55;;;;;;;11.33;93.89;102830.44;10541818;28;20478;-67
2022/11/12 09:30:08;;;;;;;14.93;9.52;;;;;;;11.35;98.33;102822.56;10542408;28;20109;-67
2022/11/12 09:35:10;;;;;;;10.80;7.90;;;;;;;12.39;91.06;102827.06;10541751;28;20077;-65
2022/11/12 09:40:18;;;;;;;11.60;8.02;;;;;;;11.54;93.68;102820.56;10541432;28;20492;-66
2022/11/12 09:45:29;;;;;;;9.48;7.57;;;;;;;10.76;85.28;102821.56;10538008;28;20056;-65
2022/11/12 09:50:40;;;;;;;14.52;8.82;;;;;;;11.68;93.08;102822.09;10540880;28;20121;-67
2022/11/12 09:55:48;;;;;;;11.13;8.48;;;;;;;11.26;89.52;102826.16;10541536;28;20101;-66
2022/11/12 10:00:59;;;;;;;12.60;8.55;;;;;;;12.45;92.11;102824.31;10540987;28;20048;-66
2022/11/12 10:06:12;;;;;;;11.02;8.35;;;;;;;13.42;80.76;102812.75;10540257;28;20282;-66
2022/11/12 10:17:28;;;;;;;10.68;8.07;;;;;;;14.49;71.55;102810.97;10537426;28;20044;-65
2022/11/12 10:22:58;;;;;;;9.25;7.80;;;;;;;15.09;77.42;102811.03;10539838;28;20040;-65
2022/11/12 10:28:08;;;;;;;9.55;8.27;;;;;;;14.40;85.98;102805.06;10539592;28;20163;-64
2022/11/12 10:33:14;;;;;;;9.80;8.20;;;;;;;13.90;69.34;102808.97;10538858;28;20086;-64
2022/11/12 10:38:26;;;;;;;10.95;8.07;;;;;;;14.95;66.45;102807.97;10539240;28;20048;-66
2022/11/12 10:43:27;;;;;;;10.70;7.82;;;;;;;14.21;71.31;102796.84;10539252;28;20059;-64
2022/11/12 10:48:32;;;;;;;11.60;7.88;;;;;;;14.97;74.76;102808.78;10536568;28;20066;-65
2022/11/12 10:53:36;;;;;;;9.73;7.47;;;;;;;15.55;64.43;102797.34;10538322;28;20122;-65
2022/11/12 10:58:38;;;;;;;11.63;7.35;;;;;;;16.85;68.12;102796.41;10537900;28;20048;-65
2022/11/12 11:03:54;;;;;;;10.80;6.95;;;;;;;16.55;59.05;102789.59;10538756;28;20093;-64
2022/11/12 11:09:15;;;;;;;9.35;7.35;;;;;;;16.53;64.07;102772.94;10538159;28;20097;-65
2022/11/12 11:14:37;;;;;;;10.85;7.40;;;;;;;16.25;68.01;102787.13;10535391;28;20044;-65
2022/11/12 11:19:42;;;;;;;9.02;6.97;;;;;;;14.44;66.46;102784.81;10537385;28;20064;-65
2022/11/12 11:24:59;;;;;;;14.60;7.40;;;;;;;15.56;65.13;102776.25;10537247;28;20062;-65
2022/11/12 11:30:10;;;;;;;8.07;6.97;;;;;;;15.15;64.84;102774.03;10537441;28;20047;-65
2022/11/12 11:35:25;;;;;;;;;;;;;;;14.90;68.02;102769.53;10537428;28;20466;-65
2022/11/12 11:40:31;;;;;;;10.23;7.45;;;;;;;16.59;62.68;102769.22;10536940;28;19927;-65
2022/11/12 11:45:55;;;;;;;9.18;7.43;;;;;;;14.88;63.95;102763.47;10534011;28;20044;-64
2022/11/12 11:51:08;;;;;;;9.68;6.85;;;;;;;15.60;63.24;102748.06;10536622;28;20052;-64
2022/11/12 11:56:23;;;;;;;7.80;7.00;;;;;;;15.91;65.74;102744.38;10536652;28;20108;-65
2022/11/12 12:01:35;;;;;;;9.98;7.40;;;;;;;17.13;65.97;102741.75;10535542;28;20424;-65
2022/11/12 12:06:53;;;;;;;9.75;7.57;;;;;;;16.65;68.79;102741.78;10533869;28;20483;-65
2022/11/12 12:12:09;;;;;;;9.50;7.70;;;;;;;15.39;65.55;102729.44;10534896;28;20541;-65
2022/11/12 12:17:29;;;;;;;10.70;7.47;;;;;;;15.40;67.48;102715.38;10532457;28;20113;-64
2022/11/12 12:22:40;;;;;;;9.60;7.13;;;;;;;15.77;68.85;102702.75;10534972;28;20044;-65
2022/11/12 12:27:50;;;;;;;;;;;;;;;15.65;66.38;102698.78;10535036;28;20052;-65
2022/11/12 12:33:01;;;;;;;8.85;7.50;;;;;;;15.57;67.92;102695.56;10534009;28;20012;-65
2022/11/12 12:38:15;;;;;;;10.00;8.40;;;;;;;14.66;70.49;102694.88;10534701;28;20055;-65
2022/11/12 12:43:29;;;;;;;12.93;8.35;;;;;;;17.07;70.11;102695.38;10534055;28;20054;-65
2022/11/12 12:48:35;;;;;;;14.15;8.52;;;;;;;17.96;67.81;102689.84;10531794;28;20048;-65
2022/11/12 12:53:39;;;;;;;12.07;8.98;;;;;;;17.81;66.96;102690.53;10534410;28;20097;-66
2022/11/12 12:58:45;;;;;;;9.27;7.53;;;;;;;17.65;68.48;102680.63;10535006;28;20054;-65
2022/11/12 13:03:55;;;;;;;12.07;7.60;;;;;;;16.66;68.03;102681.09;10535180;28;20075;-65
2022/11/12 13:09:05;;;;;;;10.82;8.55;;;;;;;16.68;71.16;102674.00;10534569;28;20553;-66
2022/11/12 13:15:00;;;;;;;14.48;8.57;;;;;;;16.20;66.54;102675.81;10515162;28;20044;-65
2022/11/12 13:20:34;;;;;;;13.15;8.27;;;;;;;17.48;64.56;102669.03;10498758;28;20048;-65
2022/11/12 13:25:38;;;;;;;10.88;8.43;;;;;;;16.55;71.35;102662.22;10542181;28;20051;-65
2022/11/12 13:30:59;;;;;;;12.30;8.95;;;;;;;15.39;73.56;102665.44;10533837;28;20132;-65
2022/11/12 13:36:28;;;;;;;14.27;9.70;;;;;;;14.80;77.67;102663.84;10499687;28;20048;-65
2022/11/12 13:46:54;;;;;;;12.32;10.27;;;;;;;14.84;77.02;102648.81;10512561;28;20191;-64
2022/11/12 13:51:57;;;;;;;12.82;9.65;;;;;;;14.61;78.36;102650.34;10540640;28;20472;-64
2022/11/12 13:57:31;;;;;;;13.75;9.18;;;;;;;14.67;79.76;102650.19;10541196;28;20188;-65
2022/11/12 14:02:36;;;;;;;12.88;9.55;;;;;;;14.45;80.98;102657.00;10540595;28;20052;-65
2022/11/12 14:07:53;;;;;;;14.45;10.18;;;;;;;14.38;81.07;102651.94;10540422;28;20442;-66
2022/11/12 14:13:20;;;;;;;13.23;9.43;;;;;;;14.28;82.24;102655.72;10539511;28;20440;-65
2022/11/12 14:18:42;;;;;;;15.57;9.27;;;;;;;14.16;82.50;102662.19;10535947;28;20052;-65
2022/11/12 14:23:46;;;;;;;9.85;8.85;;;;;;;13.94;84.72;102654.06;10541008;28;20052;-64
2022/11/12 14:28:56;;;;;;;9.90;8.38;;;;;;;13.95;84.81;102648.75;10539952;28;20048;-66
2022/11/12 14:34:19;;;;;;;16.17;10.30;;;;;;;13.77;86.35;102632.66;10540596;28;20055;-66
2022/11/12 14:39:24;;;;;;;10.88;9.77;;;;;;;13.60;85.12;102633.09;10541042;28;20055;-64
2022/11/12 14:44:35;;;;;;;13.30;11.05;;;;;;;13.46;87.57;102632.56;10538283;28;20044;-66
2022/11/12 14:49:43;;;;;;;14.73;11.13;;;;;;;13.25;92.65;102632.22;10540504;28;20089;-64
2022/11/12 14:54:53;;;;;;;13.80;10.48;;;;;;;13.11;89.36;102629.94;10540215;28;20139;-65
2022/11/12 14:59:58;;;;;;;17.88;11.55;;;;;;;13.02;88.71;102633.63;10538999;28;20051;-65
2022/11/12 15:05:03;;;;;;;12.60;10.32;;;;;;;12.93;89.84;102631.25;10538992;28;20105;-65
2022/11/12 15:10:40;;;;;;;16.20;10.05;;;;;;;12.92;90.75;102635.63;10505450;28;20052;-65
2022/11/12 15:15:54;;;;;;;12.02;9.38;;;;;;;12.55;97.38;102634.69;10503620;28;20036;-66
2022/11/12 15:21:14;;;;;;;15.18;10.25;;;;;;;12.26;98.67;102625.72;10497869;28;20051;-68
2022/11/12 15:26:31;;;;;;;16.45;10.15;;;;;;;11.87;97.06;102629.06;10495851;28;20573;-65
2022/11/12 15:31:45;;;;;;;15.50;10.48;;;;;;;11.57;99.17;102624.38;10495632;28;20048;-66
2022/11/12 15:36:48;;;;;;;16.65;10.43;;;;;;;11.24;99.72;102624.09;10495958;28;20048;-67
2022/11/12 15:41:58;;;;;;;15.55;10.30;;;;;;;10.92;100.00;102612.41;10495380;28;20075;-67
2022/11/12 15:47:02;;;;;;;14.75;11.20;;;;;;;10.56;100.00;102612.94;10493496;28;20106;-67
2022/11/12 15:52:04;;;;;;;15.85;10.20;;;;;;;10.21;100.00;102622.94;10495901;28;20094;-66
2022/11/12 15:57:12;;;;;;;16.17;10.63;;;;;;;10.01;100.00;102616.19;10496336;28;20569;-67
2022/11/12 16:02:16;;;;;;;14.60;10.07;;;;;;;9.71;100.00;102615.66;10496030;28;20059;-67
2022/11/12 16:07:19;;;;;;;15.75;11.18;;;;;;;9.38;100.00;102607.28;10526928;28;20044;-67
2022/11/12 16:12:21;;;;;;;18.42;13.07;;;;;;;9.21;100.00;102600.47;10538330;28;20048;-67
2022/11/12 16:17:25;;;;;;;21.05;15.80;;;;;;;8.93;100.00;102598.06;10535790;28;20105;-68
2022/11/12 16:22:27;;;;;;;20.80;15.65;;;;;;;8.70;100.00;102598.25;10537619;28;20089;-67
2022/11/12 16:27:30;;;;;;;;;;;;;;;8.55;100.00;102594.00;10537754;28;20052;-68
2022/11/12 16:32:33;;;;;;;21.55;13.10;;;;;;;8.30;100.00;102599.28;10537342;28;19965;-68
2022/11/12 16:37:38;;;;;;;23.23;14.55;;;;;;;8.18;100.00;102601.06;10536972;28;20471;-68
2022/11/12 16:42:44;;;;;;;20.00;14.02;;;;;;;8.17;100.00;102593.25;10537712;28;20046;-68
2022/11/12 16:47:50;;;;;;;21.60;13.40;;;;;;;8.11;100.00;102604.59;10535451;28;20048;-68
2022/11/12 16:52:53;;;;;;;24.63;14.20;;;;;;;7.97;100.00;102604.59;10543572;28;20056;-68
2022/11/12 16:57:55;;;;;;;25.83;16.52;;;;;;;8.02;100.00;102602.00;10544498;28;20055;-67
2022/11/12 17:02:58;;;;;;;30.65;17.83;;;;;;;8.02;100.00;102605.47;10543183;28;20052;-67
2022/11/12 17:08:01;;;;;;;26.63;16.52;;;;;;;7.93;100.00;102601.16;10543762;28;20048;-68
2022/11/12 17:13:03;;;;;;;29.67;15.75;;;;;;;7.80;100.00;102600.31;10543032;28;20070;-68
2022/11/12 17:18:08;;;;;;;29.33;17.02;;;;;;;7.66;100.00;102597.75;10540936;28;20052;-68
2022/11/12 17:23:10;;;;;;;27.55;18.88;;;;;;;7.55;100.00;102590.00;10542514;28;20131;-68
2022/11/12 17:28:13;;;;;;;29.83;19.60;;;;;;;7.54;100.00;102587.38;10542455;28;20113;-68
2022/11/12 17:33:16;;;;;;;26.45;19.73;;;;;;;7.42;100.00;102588.25;10542262;28;20110;-68
2022/11/12 17:38:17;;;;;;;25.67;19.65;;;;;;;7.40;100.00;102577.91;10541725;28;20476;-68
2022/11/12 17:43:19;;;;;;;30.58;20.73;;;;;;;7.39;100.00;102583.94;10540385;28;20055;-69
2022/11/12 17:48:23;;;;;;;29.40;19.48;;;;;;;7.29;100.00;102577.03;10537901;28;20044;-69
2022/11/12 17:53:25;;;;;;;33.70;24.75;;;;;;;7.24;100.00;102576.16;10516152;28;20075;-67
2022/11/12 17:58:27;;;;;;;43.97;25.83;;;;;;;7.12;100.00;102575.28;10539956;28;20124;-68
2022/11/12 18:03:30;;;;;;;37.00;22.10;;;;;;;7.00;100.00;102570.09;10537779;28;20121;-68
2022/11/12 18:08:31;;;;;;;36.63;22.60;;;;;;;6.98;100.00;102571.84;10528111;28;20105;-67
2022/11/12 18:13:34;;;;;;;35.33;22.10;;;;;;;6.89;100.00;102573.56;10506205;28;20477;-68
2022/11/12 18:18:37;;;;;;;;;;;;;;;6.95;100.00;102568.38;10537188;28;20492;-68
2022/11/12 18:23:39;;;;;;;33.28;19.85;;;;;;;6.85;100.00;102570.97;10538183;28;20448;-69
2022/11/12 18:28:41;;;;;;;34.20;20.65;;;;;;;6.76;100.00;102577.00;10537697;28;20444;-69
2022/11/12 18:33:45;;;;;;;37.22;22.83;;;;;;;6.61;100.00;102576.13;10537899;28;20124;-68
2022/11/12 18:38:48;;;;;;;38.08;24.35;;;;;;;6.50;100.00;102575.25;10538181;28;20066;-68
2022/11/12 18:43:50;;;;;;;43.88;27.20;;;;;;;6.43;100.00;102575.22;10537951;28;20052;-68
2022/11/12 18:48:53;;;;;;;43.92;27.17;;;;;;;6.41;100.00;102569.16;10535127;28;20048;-67
2022/11/12 18:53:55;;;;;;;39.00;26.67;;;;;;;6.49;100.00;102568.28;10537226;28;20048;-68
2022/11/12 18:58:57;;;;;;;42.23;26.80;;;;;;;6.49;100.00;102568.28;10537704;28;20462;-68
2022/11/12 19:04:00;;;;;;;38.83;23.38;;;;;;;6.44;100.00;102571.75;10536579;28;20363;-68
2022/11/12 19:09:02;;;;;;;33.15;22.00;;;;;;;6.37;100.00;102558.78;10536621;28;20105;-68
2022/11/12 19:14:04;;;;;;;32.72;19.23;;;;;;;6.25;100.00;102559.59;10533897;28;20144;-68
2022/11/12 19:19:09;;;;;;;30.73;20.30;;;;;;;6.09;100.00;102569.88;10536253;28;20048;-67
2022/11/12 19:24:10;;;;;;;32.10;18.48;;;;;;;5.95;100.00;102559.44;10536893;28;20058;-68
2022/11/12 19:29:12;;;;;;;31.77;20.37;;;;;;;5.89;100.00;102552.50;10536029;28;20056;-68
2022/11/12 19:34:15;;;;;;;36.03;20.00;;;;;;;5.81;100.00;102554.19;10536117;28;20302;-68
2022/11/12 19:39:17;;;;;;;34.95;19.40;;;;;;;5.76;100.00;102543.81;10535311;28;20062;-67
2022/11/12 19:44:20;;;;;;;32.27;19.20;;;;;;;5.66;100.00;102542.91;10533170;28;20105;-68
2022/11/12 19:49:23;;;;;;;30.02;18.75;;;;;;;5.81;100.00;102541.22;10535324;28;20302;-68
2022/11/12 19:54:24;;;;;;;35.67;22.42;;;;;;;5.73;100.00;102545.50;10535120;28;20048;-68
2022/11/12 19:59:26;;;;;;;31.47;20.40;;;;;;;5.74;100.00;102542.94;10534979;28;20082;-68
2022/11/12 20:04:29;;;;;;;34.90;21.00;;;;;;;5.69;100.00;102548.94;10534770;28;20457;-68
2022/11/12 20:09:31;;;;;;;40.50;22.33;;;;;;;5.58;100.00;102549.72;10534784;28;20055;-69
2022/11/12 20:14:33;;;;;;;33.33;21.38;;;;;;;5.52;100.00;102549.72;10532229;28;20528;-68
2022/11/12 20:19:36;;;;;;;37.20;23.33;;;;;;;5.59;100.00;102546.31;10534454;28;20086;-68
2022/11/12 20:24:38;;;;;;;36.72;21.52;;;;;;;5.44;100.00;102543.63;10535110;28;20105;-68
2022/11/12 20:29:39;;;;;;;35.95;23.33;;;;;;;5.45;100.00;102546.22;10543529;28;20140;-68
2022/11/12 20:34:43;;;;;;;46.13;27.20;;;;;;;5.34;100.00;102537.53;10544008;28;20101;-68
2022/11/12 20:39:45;;;;;;;54.65;34.05;;;;;;;5.40;100.00;102538.41;10543905;28;20301;-68
2022/11/12 20:44:48;;;;;;;46.70;29.87;;;;;;;5.28;100.00;102531.41;10541088;28;20082;-69
2022/11/12 20:49:51;;;;;;;50.53;32.25;;;;;;;5.22;100.00;102526.22;10543157;28;20298;-68
2022/11/12 20:54:54;;;;;;;39.13;26.13;;;;;;;5.18;100.00;102521.00;10542530;28;20453;-68
2022/11/12 20:59:56;;;;;;;44.95;27.25;;;;;;;5.12;100.00;102517.53;10542795;28;20043;-68
2022/11/12 21:04:59;;;;;;;45.07;28.43;;;;;;;5.05;100.00;102512.25;10542515;28;20062;-68
2022/11/12 21:10:00;;;;;;;43.28;25.17;;;;;;;4.96;100.00;102511.34;10542647;28;20302;-68
2022/11/12 21:15:02;;;;;;;44.27;26.77;;;;;;;4.92;100.00;102503.56;10540723;28;20086;-68
2022/11/12 21:20:07;;;;;;;49.53;29.23;;;;;;;4.85;100.00;102503.50;10542185;28;20355;-68
2022/11/12 21:25:09;;;;;;;49.45;31.40;;;;;;;4.90;100.00;102501.81;10542216;28;20104;-68
2022/11/12 21:30:12;;;;;;;47.95;29.63;;;;;;;5.09;100.00;102501.97;10541691;28;20499;-68
2022/11/12 21:35:16;;;;;;;64.47;36.50;;;;;;;5.00;100.00;102507.06;10542165;28;20070;-69
2022/11/12 21:40:18;;;;;;;51.40;31.75;;;;;;;4.98;100.00;102501.88;10541316;28;20116;-68
2022/11/12 21:45:20;;;;;;;49.95;30.90;;;;;;;4.96;100.00;102490.66;10539421;28;20052;-68
2022/11/12 21:50:23;;;;;;;55.78;30.42;;;;;;;4.92;100.00;102482.88;10541047;28;20458;-68
2022/11/12 21:55:25;;;;;;;48.10;29.42;;;;;;;4.94;100.00;102476.84;10540988;28;20074;-68
2022/11/12 22:00:27;;;;;;;47.17;27.95;;;;;;;5.02;100.00;102479.47;10541187;28;20067;-69
2022/11/12 22:05:30;;;;;;;60.72;29.98;;;;;;;5.02;100.00;102476.88;10540987;28;20058;-69
2022/11/12 22:10:31;;;;;;;48.30;29.27;;;;;;;5.02;100.00;102469.13;10540190;28;20450;-68
2022/11/12 22:15:33;;;;;;;41.83;26.75;;;;;;;5.07;100.00;102476.94;10538095;28;20051;-68
2022/11/12 22:20:36;;;;;;;43.80;26.27;;;;;;;4.95;100.00;102469.94;10539926;28;20054;-68
2022/11/12 22:25:38;;;;;;;44.97;25.70;;;;;;;4.85;100.00;102472.47;10539740;28;20352;-68
2022/11/12 22:30:40;;;;;;;44.60;24.67;;;;;;;4.85;100.00;102472.47;10539537;28;20052;-68
2022/11/12 22:35:44;;;;;;;36.50;24.53;;;;;;;4.79;100.00;102471.56;10539498;28;20359;-68
2022/11/12 22:40:46;;;;;;;43.92;24.45;;;;;;;4.76;100.00;102465.47;10539753;28;20048;-68
2022/11/12 22:45:47;;;;;;;40.20;23.37;;;;;;;4.73;100.00;102454.25;10536235;28;20052;-68
2022/11/12 22:50:50;;;;;;;39.67;24.08;;;;;;;4.64;100.00;102453.34;10538370;28;20102;-68
2022/11/12 22:55:55;;;;;;;38.92;22.42;;;;;;;4.67;100.00;102436.97;10538834;28;20044;-69
2022/11/12 23:00:57;;;;;;;36.47;21.80;;;;;;;4.70;100.00;102438.72;10538468;28;20465;-69
2022/11/12 23:06:04;;;;;;;36.35;23.85;;;;;;;4.70;100.00;102441.28;10538117;28;20062;-68
2022/11/12 23:11:09;;;;;;;38.75;23.48;;;;;;;4.74;100.00;102427.53;10538352;28;20051;-69
2022/11/12 23:16:15;;;;;;;40.72;23.40;;;;;;;4.69;100.00;102426.63;10535643;28;20048;-69
2022/11/12 23:21:29;;;;;;;41.35;24.73;;;;;;;4.67;100.00;102423.16;10537499;28;20599;-69
2022/11/12 23:26:32;;;;;;;36.50;23.45;;;;;;;4.75;100.00;102418.91;10537663;28;20058;-69